createdAt,value
2018-12-23T00:02:02.928Z,2.73
2018-12-23T00:04:31.799Z,3.13
2018-12-23T00:07:00.279Z,3.30
2018-12-23T00:09:32.615Z,3.00
2018-12-23T00:12:01.885Z,2.60
2018-12-23T00:14:30.265Z,2.77
2018-12-23T00:16:58.687Z,3.70
2018-12-23T00:19:27.090Z,2.63
2018-12-23T00:21:56.064Z,2.63
2018-12-23T00:24:25.312Z,3.07
2018-12-23T00:26:54.747Z,3.53
2018-12-23T00:29:23.066Z,3.00
2018-12-23T00:31:51.439Z,3.70
2018-12-23T00:34:19.919Z,3.00
2018-12-23T00:36:48.378Z,3.10
2018-12-23T00:39:16.788Z,4.10
2018-12-23T00:41:45.220Z,2.70
2018-12-23T00:44:13.744Z,2.67
2018-12-23T00:46:42.165Z,2.67
2018-12-23T00:49:10.636Z,2.83
2018-12-23T00:51:38.986Z,3.33
2018-12-23T00:54:07.724Z,3.03
2018-12-23T00:56:36.419Z,3.37
2018-12-23T00:59:04.807Z,3.50
2018-12-23T01:01:33.233Z,4.40
2018-12-23T01:04:01.611Z,4.83
2018-12-23T01:06:29.985Z,3.30
2018-12-23T01:08:58.342Z,2.67
2018-12-23T01:11:26.717Z,3.10
2018-12-23T01:13:55.102Z,2.63
2018-12-23T01:16:23.602Z,2.97
2018-12-23T01:18:52.050Z,3.47
2018-12-23T01:21:20.429Z,3.87
2018-12-23T01:23:48.804Z,2.63
2018-12-23T01:26:17.281Z,3.50
2018-12-23T01:28:46.794Z,3.10
2018-12-23T01:31:15.219Z,3.20
2018-12-23T01:33:43.648Z,3.20
2018-12-23T01:36:12.027Z,3.70
2018-12-23T01:38:40.420Z,2.70
2018-12-23T01:41:09.411Z,2.90
2018-12-23T01:43:37.850Z,3.83
2018-12-23T01:46:06.511Z,3.10
2018-12-23T01:48:36.113Z,3.27
2018-12-23T01:51:04.563Z,3.27
2018-12-23T01:53:33.213Z,3.20
2018-12-23T01:56:01.644Z,3.80
2018-12-23T01:58:30.037Z,3.07
2018-12-23T02:00:58.458Z,2.93
2018-12-23T02:03:26.870Z,3.47
2018-12-23T02:05:55.413Z,3.70
2018-12-23T02:08:23.849Z,3.57
2018-12-23T02:10:52.179Z,3.67
2018-12-23T02:13:21.163Z,3.40
2018-12-23T02:15:49.934Z,3.70
2018-12-23T02:18:18.300Z,3.10
2018-12-23T02:20:46.762Z,3.47
2018-12-23T02:23:15.163Z,3.50
2018-12-23T02:25:44.352Z,2.83
2018-12-23T02:28:12.695Z,3.40
2018-12-23T02:30:41.071Z,2.90
2018-12-23T02:33:10.016Z,3.77
2018-12-23T02:35:38.430Z,3.17
2018-12-23T02:38:07.356Z,2.97
2018-12-23T02:40:35.930Z,3.47
2018-12-23T02:43:05.824Z,3.10
2018-12-23T02:45:34.357Z,3.57
2018-12-23T02:48:02.745Z,3.57
2018-12-23T02:50:31.060Z,3.67
2018-12-23T02:52:59.441Z,2.67
2018-12-23T02:55:27.809Z,3.40
2018-12-23T02:57:59.075Z,2.90
2018-12-23T03:00:27.680Z,3.40
2018-12-23T03:02:56.121Z,3.30
2018-12-23T03:05:24.614Z,3.47
2018-12-23T03:07:53.122Z,4.00
2018-12-23T03:10:21.767Z,3.13
2018-12-23T03:12:50.890Z,3.37
2018-12-23T03:15:19.260Z,3.60
2018-12-23T03:17:47.619Z,2.60
2018-12-23T03:20:16.074Z,2.97
2018-12-23T03:22:44.722Z,3.50
2018-12-23T03:25:13.090Z,3.90
2018-12-23T03:27:41.795Z,3.60
2018-12-23T03:30:10.192Z,3.10
2018-12-23T03:32:38.633Z,3.13
2018-12-23T03:35:08.006Z,2.70
2018-12-23T03:37:36.470Z,2.97
2018-12-23T03:40:05.180Z,3.87
2018-12-23T03:42:33.976Z,3.90
2018-12-23T03:45:02.371Z,2.97
2018-12-23T03:47:30.726Z,3.90
2018-12-23T03:49:59.095Z,3.30
2018-12-23T03:52:27.901Z,3.20
2018-12-23T03:55:00.279Z,3.67
2018-12-23T03:57:28.754Z,3.13
2018-12-23T03:59:57.225Z,2.97
2018-12-23T04:02:25.652Z,3.63
2018-12-23T04:04:54.122Z,3.40
2018-12-23T04:07:22.498Z,2.73
2018-12-23T04:09:51.182Z,3.07
2018-12-23T04:12:19.609Z,2.47
2018-12-23T04:14:49.054Z,2.43
2018-12-23T04:17:18.094Z,3.23
2018-12-23T04:19:46.506Z,4.50
2018-12-23T04:22:14.961Z,4.40
2018-12-23T04:24:44.060Z,2.60
2018-12-23T04:27:12.510Z,4.00
2018-12-23T04:29:40.888Z,2.40
2018-12-23T04:32:09.543Z,2.60
2018-12-23T04:34:38.000Z,3.03
2018-12-23T04:37:06.454Z,3.30
2018-12-23T04:39:34.901Z,3.17
2018-12-23T04:42:03.273Z,2.40
2018-12-23T04:44:31.657Z,2.60
2018-12-23T04:47:00.032Z,2.47
2018-12-23T04:49:28.484Z,2.80
2018-12-23T04:51:56.811Z,3.73
2018-12-23T04:54:25.245Z,3.83
2018-12-23T04:56:53.779Z,2.47
2018-12-23T04:59:22.181Z,3.03
2018-12-23T05:01:50.668Z,3.10
2018-12-23T05:04:19.064Z,2.80
2018-12-23T05:06:47.435Z,3.03
2018-12-23T05:09:15.800Z,3.10
2018-12-23T05:11:45.164Z,3.13
2018-12-23T05:14:14.715Z,4.33
2018-12-23T05:16:43.125Z,2.80
2018-12-23T05:19:11.582Z,3.00
2018-12-23T05:21:40.080Z,2.53
2018-12-23T05:24:08.497Z,3.30
2018-12-23T05:26:36.865Z,3.40
2018-12-23T05:29:05.251Z,3.00
2018-12-23T05:31:33.702Z,3.50
2018-12-23T05:34:02.383Z,2.90
2018-12-23T05:36:30.756Z,3.93
2018-12-23T05:38:59.186Z,2.70
2018-12-23T05:41:27.573Z,3.87
2018-12-23T05:43:56.144Z,2.77
2018-12-23T05:46:24.491Z,2.73
2018-12-23T05:48:52.904Z,3.13
2018-12-23T05:51:21.268Z,2.97
2018-12-23T05:53:49.616Z,3.20
2018-12-23T05:56:17.985Z,2.93
2018-12-23T05:58:46.660Z,3.10
2018-12-23T06:01:15.147Z,2.43
2018-12-23T06:03:43.559Z,3.63
2018-12-23T06:06:11.948Z,3.27
2018-12-23T06:08:40.334Z,4.60
2018-12-23T06:11:08.769Z,3.00
2018-12-23T06:13:37.159Z,2.93
2018-12-23T06:16:05.850Z,3.27
2018-12-23T06:18:34.153Z,3.20
2018-12-23T06:21:02.549Z,3.40
2018-12-23T06:23:30.869Z,3.00
2018-12-23T06:25:59.354Z,3.20
2018-12-23T06:28:27.841Z,3.30
2018-12-23T06:30:56.194Z,3.73
2018-12-23T06:33:24.821Z,3.30
2018-12-23T06:35:53.173Z,3.00
2018-12-23T06:38:21.694Z,5.10
2018-12-23T06:40:50.071Z,4.50
2018-12-23T06:43:18.493Z,4.40
2018-12-23T06:45:46.891Z,7.60
2018-12-23T06:48:15.543Z,13.60
2018-12-23T06:50:43.956Z,6.30
2018-12-23T06:53:12.840Z,5.23
2018-12-23T06:55:41.230Z,3.57
2018-12-23T06:58:10.680Z,3.40
2018-12-23T07:00:39.131Z,3.53
2018-12-23T07:03:07.771Z,2.50
2018-12-23T07:05:37.305Z,5.97
2018-12-23T07:08:05.719Z,3.67
2018-12-23T07:10:34.286Z,3.50
2018-12-23T07:13:02.705Z,3.10
2018-12-23T07:15:31.177Z,3.70
2018-12-23T07:17:59.908Z,3.70
2018-12-23T07:20:28.285Z,2.73
2018-12-23T07:22:57.591Z,3.80
2018-12-23T07:25:26.042Z,5.87
2018-12-23T07:27:54.486Z,4.00
2018-12-23T07:30:23.153Z,4.20
2018-12-23T07:32:51.862Z,3.57
2018-12-23T07:35:20.257Z,4.07
2018-12-23T07:37:48.635Z,4.07
2018-12-23T07:40:17.172Z,4.20
2018-12-23T07:42:45.581Z,3.90
2018-12-23T07:45:14.074Z,4.50
2018-12-23T07:47:42.549Z,3.90
2018-12-23T07:50:11.538Z,4.53
2018-12-23T07:52:40.041Z,3.17
2018-12-23T07:55:08.713Z,4.00
2018-12-23T07:57:37.153Z,4.63
2018-12-23T08:00:05.671Z,4.20
2018-12-23T08:02:34.497Z,4.50
2018-12-23T08:05:03.114Z,3.80
2018-12-23T08:07:36.125Z,3.40
2018-12-23T08:10:02.451Z,4.33
2018-12-23T08:12:30.871Z,3.90
2018-12-23T08:14:59.198Z,4.63
2018-12-23T08:17:27.556Z,4.43
2018-12-23T08:19:56.439Z,3.50
2018-12-23T08:22:25.491Z,3.37
2018-12-23T08:24:53.793Z,4.10
2018-12-23T08:27:22.142Z,5.03
2018-12-23T08:29:50.511Z,4.53
2018-12-23T08:32:18.841Z,3.43
2018-12-23T08:34:47.240Z,4.10
2018-12-23T08:37:15.596Z,4.17
2018-12-23T08:39:43.940Z,4.03
2018-12-23T08:42:12.261Z,3.97
2018-12-23T08:44:40.822Z,3.87
2018-12-23T08:47:10.104Z,4.37
2018-12-23T08:49:38.440Z,4.40
2018-12-23T08:52:06.803Z,3.93
2018-12-23T08:54:35.212Z,4.37
2018-12-23T08:57:03.559Z,4.40
2018-12-23T08:59:32.005Z,4.57
2018-12-23T09:02:00.656Z,4.20
2018-12-23T09:04:29.651Z,4.37
2018-12-23T09:06:58.057Z,4.00
2018-12-23T09:09:26.613Z,4.90
2018-12-23T09:11:55.056Z,3.57
2018-12-23T09:14:23.417Z,4.73
2018-12-23T09:16:51.786Z,3.53
2018-12-23T09:19:20.214Z,4.10
2018-12-23T09:21:48.583Z,4.07
2018-12-23T09:24:16.972Z,3.40
2018-12-23T09:26:45.472Z,3.23
2018-12-23T09:29:13.916Z,3.73
2018-12-23T09:31:42.310Z,3.63
2018-12-23T09:34:10.705Z,3.40
2018-12-23T09:36:39.110Z,3.87
2018-12-23T09:39:07.792Z,3.33
2018-12-23T09:41:36.208Z,4.67
2018-12-23T09:44:04.643Z,2.70
2018-12-23T09:46:33.080Z,3.70
2018-12-23T09:49:01.572Z,4.40
2018-12-23T09:51:30.006Z,4.80
2018-12-23T09:53:58.414Z,4.23
2018-12-23T09:56:26.814Z,5.00
2018-12-23T09:58:55.216Z,4.20
2018-12-23T10:01:23.608Z,4.37
2018-12-23T10:03:51.978Z,4.30
2018-12-23T10:06:20.878Z,4.33
2018-12-23T10:08:49.360Z,4.10
2018-12-23T10:11:17.773Z,5.17
2018-12-23T10:13:47.055Z,3.60
2018-12-23T10:16:15.464Z,3.70
2018-12-23T10:18:43.900Z,3.87
2018-12-23T10:21:13.146Z,4.17
2018-12-23T10:23:41.524Z,3.63
2018-12-23T10:26:16.554Z,4.27
2018-12-23T10:28:45.908Z,4.93
2018-12-23T10:31:16.815Z,4.00
2018-12-23T10:33:46.084Z,4.37
2018-12-23T10:36:16.180Z,5.53
2018-12-23T10:38:45.300Z,4.77
2018-12-23T10:41:14.150Z,4.67
2018-12-23T10:43:42.857Z,4.80
2018-12-23T10:46:11.511Z,4.83
2018-12-23T10:48:40.219Z,5.70
2018-12-23T10:51:09.031Z,7.30
2018-12-23T10:53:39.211Z,5.47
2018-12-23T10:56:08.194Z,5.17
2018-12-23T10:58:37.165Z,7.03
2018-12-23T11:01:06.592Z,9.13
2018-12-23T11:03:36.105Z,7.43
2018-12-23T11:06:05.142Z,7.77
2018-12-23T11:08:33.935Z,7.43
2018-12-23T11:11:02.700Z,6.90
2018-12-23T11:13:31.447Z,6.60
2018-12-23T11:16:00.107Z,7.57
2018-12-23T11:18:29.149Z,6.90
2018-12-23T11:20:57.869Z,5.87
2018-12-23T11:23:26.520Z,5.33
2018-12-23T11:25:55.011Z,7.40
2018-12-23T11:28:23.699Z,5.07
2018-12-23T11:30:52.604Z,4.90
2018-12-23T11:33:21.088Z,7.43
2018-12-23T11:35:49.489Z,6.43
2018-12-23T11:38:17.894Z,4.50
2018-12-23T11:40:46.345Z,4.93
2018-12-23T11:43:14.799Z,5.07
2018-12-23T11:45:43.180Z,7.30
2018-12-23T11:48:11.529Z,10.40
2018-12-23T11:50:39.918Z,14.53
2018-12-23T11:53:08.299Z,11.50
2018-12-23T11:55:37.885Z,7.90
2018-12-23T11:58:06.319Z,6.53
2018-12-23T12:00:34.818Z,6.30
2018-12-23T12:03:03.383Z,6.33
2018-12-23T12:05:32.485Z,6.20
2018-12-23T12:08:01.327Z,3.90
2018-12-23T12:10:29.863Z,4.57
2018-12-23T12:12:58.275Z,3.90
2018-12-23T12:15:26.742Z,7.40
2018-12-23T12:17:55.144Z,8.03
2018-12-23T12:20:23.580Z,6.80
2018-12-23T12:22:52.030Z,4.17
2018-12-23T12:25:20.517Z,3.80
2018-12-23T12:27:48.967Z,5.50
2018-12-23T12:30:17.379Z,2.77
2018-12-23T12:32:45.908Z,5.80
2018-12-23T12:35:14.342Z,4.30
2018-12-23T12:37:42.877Z,4.23
2018-12-23T12:40:11.609Z,5.87
2018-12-23T12:42:40.506Z,4.23
2018-12-23T12:45:09.759Z,7.70
2018-12-23T12:47:38.459Z,5.00
2018-12-23T12:50:07.085Z,3.30
2018-12-23T12:52:36.045Z,3.80
2018-12-23T12:55:04.740Z,3.70
2018-12-23T12:57:33.446Z,2.73
2018-12-23T13:00:02.750Z,3.27
2018-12-23T13:02:31.596Z,3.13
2018-12-23T13:05:00.368Z,2.67
2018-12-23T13:07:38.475Z,2.57
2018-12-23T13:10:07.249Z,3.80
2018-12-23T13:12:37.280Z,2.63
2018-12-23T13:15:06.342Z,3.80
2018-12-23T13:17:35.598Z,2.50
2018-12-23T13:20:04.911Z,2.90
2018-12-23T13:22:34.883Z,2.40
2018-12-23T13:25:04.519Z,2.13
2018-12-23T13:27:34.059Z,2.77
2018-12-23T13:30:04.098Z,2.40
2018-12-23T13:32:33.525Z,2.47
2018-12-23T13:35:04.832Z,2.60
2018-12-23T13:37:35.586Z,3.50
2018-12-23T13:40:15.279Z,2.80
2018-12-23T13:46:24.883Z,1.97
2018-12-23T13:49:09.571Z,1.80
2018-12-23T13:55:58.249Z,1.80
2018-12-23T13:58:40.939Z,1.93
2018-12-23T14:01:23.778Z,2.30
2018-12-23T14:04:06.883Z,2.27
2018-12-23T14:08:48.740Z,3.80
2018-12-23T14:12:25.585Z,3.10
2018-12-23T14:14:54.129Z,1.90
2018-12-23T14:17:22.615Z,3.80
2018-12-23T14:19:51.113Z,4.87
2018-12-23T14:22:19.707Z,4.87
2018-12-23T14:24:48.268Z,3.80
2018-12-23T14:27:17.404Z,2.50
2018-12-23T14:29:45.935Z,2.70
2018-12-23T14:32:14.329Z,8.63
2018-12-23T14:34:42.685Z,7.60
2018-12-23T14:37:11.137Z,10.20
2018-12-23T14:39:39.484Z,8.60
2018-12-23T14:42:07.860Z,8.60
2018-12-23T14:44:36.244Z,7.33
2018-12-23T14:47:04.633Z,4.57
2018-12-23T14:49:33.908Z,3.70
2018-12-23T14:52:03.186Z,3.87
2018-12-23T14:54:31.574Z,1.97
2018-12-23T14:57:00.005Z,2.30
2018-12-23T14:59:28.405Z,2.70
2018-12-23T15:01:56.817Z,2.60
2018-12-23T15:04:25.609Z,2.20
2018-12-23T15:06:54.350Z,2.73
2018-12-23T15:09:22.739Z,2.20
2018-12-23T15:11:51.173Z,3.20
2018-12-23T15:14:19.634Z,2.57
2018-12-23T15:16:48.081Z,2.17
2018-12-23T15:19:16.460Z,2.07
2018-12-23T15:21:44.889Z,2.07
2018-12-23T15:24:13.419Z,2.63
2018-12-23T15:26:41.813Z,2.70
2018-12-23T15:29:11.163Z,2.33
2018-12-23T15:31:39.573Z,2.20
2018-12-23T15:34:08.149Z,2.70
2018-12-23T15:36:36.665Z,2.13
2018-12-23T15:39:07.051Z,5.20
2018-12-23T15:41:35.445Z,3.23
2018-12-23T15:44:04.338Z,2.77
2018-12-23T15:46:35.446Z,2.00
2018-12-23T15:49:04.381Z,1.97
2018-12-23T15:51:34.226Z,2.70
2018-12-23T15:54:02.781Z,3.00
2018-12-23T15:56:31.329Z,3.57
2018-12-23T15:58:59.712Z,3.47
2018-12-23T16:01:28.146Z,22.80
2018-12-23T16:03:57.849Z,4.90
2018-12-23T16:06:26.183Z,3.87
2018-12-23T16:08:54.617Z,35.43
2018-12-23T16:11:23.042Z,29.30
2018-12-23T16:13:51.574Z,26.10
2018-12-23T16:16:20.758Z,11.30
2018-12-23T16:18:49.162Z,5.83
2018-12-23T16:21:17.636Z,27.87
2018-12-23T16:23:46.022Z,31.90
2018-12-23T16:26:14.431Z,32.23
2018-12-23T16:28:42.815Z,7.20
2018-12-23T16:31:11.207Z,4.20
2018-12-23T16:33:39.564Z,4.90
2018-12-23T16:36:07.943Z,3.77
2018-12-23T16:38:36.338Z,3.60
2018-12-23T16:41:04.716Z,3.60
2018-12-23T16:43:33.099Z,3.43
2018-12-23T16:46:01.470Z,2.80
2018-12-23T16:48:29.866Z,3.73
2018-12-23T16:50:58.226Z,2.83
2018-12-23T16:53:28.773Z,3.13
2018-12-23T16:55:57.325Z,3.27
2018-12-23T16:58:27.636Z,4.57
2018-12-23T17:01:03.009Z,9.90
2018-12-23T17:03:31.717Z,7.90
2018-12-23T17:06:00.397Z,4.10
2018-12-23T17:08:28.956Z,5.53
2018-12-23T17:10:57.505Z,4.57
2018-12-23T17:13:25.990Z,6.00
2018-12-23T17:15:54.388Z,4.30
2018-12-23T17:18:22.792Z,4.70
2018-12-23T17:23:44.284Z,4.93
2018-12-23T17:26:12.933Z,8.70
2018-12-23T17:28:41.418Z,4.37
2018-12-23T17:31:16.437Z,5.50
2018-12-23T17:33:50.644Z,6.27
2018-12-23T17:36:19.267Z,12.40
2018-12-23T17:38:53.602Z,3.30
2018-12-23T17:41:33.280Z,6.90
2018-12-23T17:44:12.538Z,5.53
2018-12-23T17:46:47.787Z,6.13
2018-12-23T17:49:28.567Z,8.07
2018-12-23T17:52:00.134Z,4.43
2018-12-23T17:54:28.859Z,7.40
2018-12-23T17:57:09.957Z,5.30
2018-12-23T17:59:45.397Z,4.00
2018-12-23T18:02:16.478Z,6.67
2018-12-23T18:07:28.451Z,7.00
2018-12-23T18:09:57.072Z,6.10
2018-12-23T18:12:27.061Z,6.33
2018-12-23T18:14:55.661Z,2.83
2018-12-23T18:17:24.316Z,2.67
2018-12-23T18:19:52.988Z,4.60
2018-12-23T18:22:22.131Z,3.93
2018-12-23T18:24:50.660Z,3.83
2018-12-23T18:27:20.549Z,6.40
2018-12-23T18:29:49.148Z,2.40
2018-12-23T18:32:17.844Z,2.87
2018-12-23T18:34:47.226Z,1.90
2018-12-23T18:37:15.847Z,1.97
2018-12-23T18:39:45.641Z,3.90
2018-12-23T18:42:15.101Z,2.30
2018-12-23T18:44:44.366Z,2.27
2018-12-23T18:47:13.555Z,5.30
2018-12-23T18:49:42.414Z,2.23
2018-12-23T18:52:11.664Z,1.67
2018-12-23T18:54:40.485Z,1.43
2018-12-23T18:58:08.157Z,1.43
2018-12-23T19:00:48.450Z,1.07
2018-12-23T19:03:29.114Z,1.60
2018-12-23T19:06:09.827Z,1.20
2018-12-23T19:08:59.522Z,1.30
2018-12-23T19:14:28.150Z,1.00
2018-12-23T19:19:56.705Z,1.20
2018-12-23T19:22:43.644Z,1.10
2018-12-23T19:25:41.743Z,1.20
2018-12-23T19:28:49.212Z,1.80
2018-12-23T19:31:32.736Z,1.90
2018-12-23T19:37:04.597Z,1.87
2018-12-23T19:42:32.424Z,1.20
2018-12-23T19:45:13.930Z,1.17
2018-12-23T19:47:58.357Z,1.40
2018-12-23T19:53:26.416Z,1.30
2018-12-23T19:58:54.138Z,1.37
2018-12-23T20:01:36.610Z,1.77
2018-12-23T20:04:21.033Z,1.40
2018-12-23T20:09:49.665Z,1.37
2018-12-23T20:12:30.192Z,1.00
2018-12-23T20:15:11.284Z,1.00
2018-12-23T20:17:54.094Z,1.20
2018-12-23T20:20:38.487Z,1.30
2018-12-23T20:23:46.005Z,1.60
2018-12-23T20:26:29.637Z,1.40
2018-12-23T20:32:23.210Z,0.80
2018-12-23T20:37:55.412Z,0.90
2018-12-23T20:43:23.985Z,1.43
2018-12-23T20:46:31.507Z,1.13
2018-12-23T20:49:15.576Z,1.40
2018-12-23T20:54:43.011Z,1.20
2018-12-23T20:57:24.519Z,1.00
2018-12-23T21:00:05.048Z,1.00
2018-12-23T21:05:29.793Z,1.93
2018-12-23T21:08:10.875Z,0.90
2018-12-23T21:10:55.123Z,0.83
2018-12-23T21:13:41.714Z,1.10
2018-12-23T21:16:25.432Z,1.00
2018-12-23T21:21:53.121Z,0.77
2018-12-23T21:27:25.470Z,1.00
2018-12-23T21:30:32.926Z,0.90
2018-12-23T21:33:13.613Z,0.80
2018-12-23T21:38:41.126Z,0.70
2018-12-23T21:44:13.550Z,1.10
2018-12-23T21:46:54.881Z,0.90
2018-12-23T21:52:46.737Z,1.00
2018-12-23T21:55:31.740Z,0.93
2018-12-23T22:00:59.737Z,0.80
2018-12-23T22:09:24.097Z,0.93
2018-12-23T22:12:07.851Z,1.40
2018-12-23T22:17:33.555Z,1.00
2018-12-23T22:22:58.515Z,0.87
2018-12-23T22:28:30.474Z,1.30
2018-12-23T22:31:11.797Z,2.67
2018-12-23T22:33:52.563Z,1.97
2018-12-23T22:36:33.581Z,1.40
2018-12-23T22:39:17.710Z,0.97
2018-12-23T22:41:59.150Z,0.80
2018-12-23T22:44:28.170Z,0.93
2018-12-23T22:46:57.107Z,0.80
2018-12-23T22:49:26.129Z,0.70
2018-12-23T22:51:55.085Z,0.70
2018-12-23T22:54:24.000Z,0.73
2018-12-23T22:56:52.925Z,0.90
2018-12-23T22:59:21.877Z,0.70
2018-12-23T23:01:50.841Z,0.77
2018-12-23T23:04:19.740Z,0.70
2018-12-23T23:06:48.778Z,0.90
2018-12-23T23:09:17.852Z,0.90
2018-12-23T23:11:50.052Z,0.77
2018-12-23T23:14:18.795Z,0.80
2018-12-23T23:16:47.694Z,1.13
2018-12-23T23:19:16.705Z,5.43
2018-12-23T23:21:45.659Z,1.30
2018-12-23T23:24:15.550Z,0.90
2018-12-23T23:26:44.634Z,1.40
2018-12-23T23:29:13.674Z,1.70
2018-12-23T23:31:42.612Z,2.60
2018-12-23T23:34:11.560Z,2.40
2018-12-23T23:36:40.568Z,1.33
2018-12-23T23:39:09.555Z,2.33
2018-12-23T23:41:38.416Z,1.83
2018-12-23T23:44:07.334Z,0.73
2018-12-23T23:46:37.762Z,0.70
2018-12-23T23:49:06.761Z,0.70
2018-12-23T23:51:37.323Z,1.00
2018-12-23T23:54:06.398Z,0.70
2018-12-23T23:56:35.470Z,0.70
2018-12-23T23:59:04.419Z,1.17
